Airfield :
LOGIN :

Register | Disclaimer

   EN    FR    IT 

 










Legend :    VFR   Marginal VFR   IFR   Intensive IFR   Very Intensive IFR
Visi :
Ceiling :
>= 8 km
>= 3000ft
5 to 8 km
1000 to 3000 ft
1500m to 5 km
500 to 1000 ft
800 to 1500m
200 to 500 ft
< 800m
< 200 ft
Symbols :   Thunderstorms  Fog  Heavy snow  Heavy precipitations  Wind > 20 kt
SIGMETs :     Misc.  Thunderstorms  Icing  Turbulence  Mountain Waves  Volcanic Ashes







- Airport Elevation : 128 ft


ETND - Diepholz

EXPIRED METARs :
  • 210520Z 33001KT 1500 VCFG MIFG FEW025 SCT060 BKN270 13/13 Q1021 AMB AMB BECMG BLU+
  • 210510Z 00000KT 0800 FG FEW022 SCT060 BKN270 13/12 Q1021 AMB AMB BECMG BLU+

TAF TAF ETND
Valid from the 21 at 05:00 until the 21 at 14:00 UTC


210415Z 2105/2114 VRB01KT 0500 FG SCT030
BECMG 2105/2117 VRB03KT 9999 NSW FEW020 SCT250
PROB30 2107/2111 12006KT 6000 -RA BKN020 BKN220 BY ETGL
No reported NOTAMs for that airfield.



MET'MAP, your aeronautical weather chart ! - Copyright ORBIFLY December 2007 - Disclaimer

ORBIFLY MET'MAP TEAM :

Programming & Development : Alexandra Zaïnal
Concept & Development : Baudouin d'Aumeries
Co-Development & Prog : Marc-Olivier Méhu
Technical & hardware support : Manuel Goepfert

Contact : metmap@orbifly.com




SOURCES & CREDITS :

   NOAA